Time;durP1;ratioP1;P1;durP2;ratioP2;P2;SDS_P1;SDS_P2;PMS_P1;PMS_P2;Temp;Humidity;BMP_temperature;BMP_pressure;BME280_temperature;BME280_humidity;BME280_pressure;Samples;Min_cycle;Max_cycle;Signal;HPM_P1;HPM_P2
2022/12/30 06:00:30;;;;;;;1.60;1.50;;;6.70;97.20;;;;;;1734162;28;20520;-70
2022/12/30 06:01:20;;;;;;;2.55;2.20;;;6.70;97.20;;;;;;1733942;28;20215;-71
2022/12/30 06:02:12;;;;;;;3.20;1.90;;;6.70;97.20;;;;;;1732872;28;20211;-71
2022/12/30 06:03:03;;;;;;;2.13;1.92;;;6.70;97.20;;;;;;1734146;28;20211;-71
2022/12/30 06:03:56;;;;;;;2.80;2.43;;;6.80;97.20;;;;;;1734098;28;20286;-71
2022/12/30 06:04:46;;;;;;;3.05;2.75;;;6.80;97.20;;;;;;1734129;28;20204;-71
2022/12/30 06:05:38;;;;;;;3.77;2.80;;;6.80;97.20;;;;;;1734022;28;20203;-70
2022/12/30 06:06:29;;;;;;;3.20;2.83;;;6.70;97.20;;;;;;1734057;28;20661;-70
2022/12/30 06:07:20;;;;;;;6.73;5.33;;;6.70;97.20;;;;;;1733766;28;20683;-71
2022/12/30 06:08:11;;;;;;;5.88;4.65;;;6.70;97.20;;;;;;1734139;28;20200;-70
2022/12/30 06:09:03;;;;;;;5.90;4.90;;;6.70;97.20;;;;;;1734077;28;20203;-71
2022/12/30 06:09:54;;;;;;;6.60;5.35;;;6.70;97.20;;;;;;1734016;28;20203;-70
2022/12/30 06:10:45;;;;;;;4.47;4.07;;;6.70;97.20;;;;;;1734002;28;20220;-70
2022/12/30 06:11:36;;;;;;;4.43;4.03;;;6.70;97.20;;;;;;1733940;28;20211;-71
2022/12/30 06:12:28;;;;;;;4.20;3.80;;;6.70;97.20;;;;;;1733557;28;20210;-71
2022/12/30 06:13:19;;;;;;;3.55;3.25;;;6.70;97.20;;;;;;1733982;28;20442;-71
2022/12/30 06:14:14;;;;;;;3.23;2.93;;;6.70;97.20;;;;;;1734099;28;20203;-71
2022/12/30 06:15:06;;;;;;;3.53;3.22;;;6.70;97.20;;;;;;1734118;28;20442;-71
2022/12/30 06:15:59;;;;;;;3.72;3.28;;;6.60;97.20;;;;;;1733985;28;20301;-70
2022/12/30 06:16:49;;;;;;;2.85;2.65;;;6.60;97.20;;;;;;1733809;28;20596;-71
2022/12/30 06:17:41;;;;;;;2.43;2.23;;;6.60;97.20;;;;;;1733952;28;20233;-70
2022/12/30 06:18:32;;;;;;;3.00;2.80;;;6.60;97.20;;;;;;1734062;28;20692;-71
2022/12/30 06:19:24;;;;;;;3.65;3.35;;;6.60;97.20;;;;;;1733961;28;20196;-71
2022/12/30 06:20:15;;;;;;;3.83;3.40;;;6.60;97.20;;;;;;1734002;28;20254;-71
2022/12/30 06:21:07;;;;;;;2.87;2.63;;;6.60;97.20;;;;;;1734170;28;20199;-71
2022/12/30 06:21:57;;;;;;;3.70;3.40;;;6.60;97.20;;;;;;1734065;28;20437;-71
2022/12/30 06:22:50;;;;;;;3.83;3.53;;;6.60;97.20;;;;;;1733524;28;20278;-71
2022/12/30 06:23:40;;;;;;;4.32;3.95;;;6.60;97.20;;;;;;1733887;28;20203;-71
2022/12/30 06:24:32;;;;;;;3.70;3.40;;;6.60;97.20;;;;;;1733924;28;20196;-71
2022/12/30 06:25:23;;;;;;;4.10;3.70;;;6.60;97.20;;;;;;1733836;28;20200;-71
2022/12/30 06:26:15;;;;;;;3.50;3.13;;;6.60;97.20;;;;;;1734174;28;20541;-70
2022/12/30 06:27:05;;;;;;;3.70;3.40;;;6.50;97.20;;;;;;1733688;28;20231;-71
2022/12/30 06:27:57;;;;;;;3.30;3.10;;;6.50;97.20;;;;;;1734064;28;20669;-71
2022/12/30 06:28:48;;;;;;;4.55;3.67;;;6.50;97.20;;;;;;1733568;28;20207;-71
2022/12/30 06:29:39;;;;;;;3.03;2.80;;;6.50;97.20;;;;;;1733277;28;20218;-71
2022/12/30 06:30:30;;;;;;;3.08;2.78;;;6.50;97.20;;;;;;1733792;28;20200;-71
2022/12/30 06:31:23;;;;;;;3.50;3.20;;;6.50;97.20;;;;;;1733503;28;20196;-71
2022/12/30 06:32:14;;;;;;;3.50;3.20;;;6.50;97.20;;;;;;1733256;28;20849;-71
2022/12/30 06:33:06;;;;;;;3.90;3.60;;;6.50;97.20;;;;;;1733860;28;20200;-71
2022/12/30 06:33:56;;;;;;;3.70;3.40;;;6.50;97.20;;;;;;1733799;28;20199;-71
2022/12/30 06:34:48;;;;;;;3.93;3.63;;;6.50;97.20;;;;;;1734004;28;20208;-71
2022/12/30 06:35:39;;;;;;;4.68;3.50;;;6.50;97.20;;;;;;1733960;28;20231;-71
2022/12/30 06:36:30;;;;;;;3.87;3.57;;;6.50;97.20;;;;;;1733979;28;20199;-70
2022/12/30 06:37:21;;;;;;;3.45;3.15;;;6.50;97.20;;;;;;1733692;28;20677;-71
2022/12/30 06:38:13;;;;;;;3.30;3.00;;;6.50;97.20;;;;;;1734042;28;20701;-71
2022/12/30 06:39:04;;;;;;;2.92;2.72;;;6.50;97.20;;;;;;1733488;28;20219;-70
2022/12/30 06:39:55;;;;;;;3.10;2.70;;;6.50;97.20;;;;;;1733740;28;20210;-70
2022/12/30 06:40:46;;;;;;;2.85;2.53;;;6.50;97.20;;;;;;1733770;28;20270;-71
2022/12/30 06:41:38;;;;;;;1.93;1.83;;;6.50;97.20;;;;;;1733994;28;20210;-70
2022/12/30 06:42:28;;;;;;;1.77;1.67;;;6.40;97.20;;;;;;1733412;28;20967;-71
2022/12/30 06:43:20;;;;;;;2.40;2.20;;;6.40;97.20;;;;;;1731726;28;20590;-71
2022/12/30 06:44:11;;;;;;;1.42;1.33;;;6.40;97.20;;;;;;1733807;28;20203;-71
2022/12/30 06:45:03;;;;;;;1.37;1.27;;;6.40;97.20;;;;;;1733930;28;20204;-71
2022/12/30 06:45:54;;;;;;;1.25;1.15;;;6.40;97.20;;;;;;1733891;28;20208;-71
2022/12/30 06:46:47;;;;;;;1.67;1.30;;;6.40;97.20;;;;;;1733779;28;20204;-71
2022/12/30 06:47:38;;;;;;;1.48;1.20;;;6.40;97.20;;;;;;1733811;28;20831;-71
2022/12/30 06:48:29;;;;;;;1.47;1.37;;;6.40;97.20;;;;;;1733998;28;20207;-70
2022/12/30 06:49:20;;;;;;;1.48;1.38;;;6.40;97.20;;;;;;1733610;28;20196;-70
2022/12/30 06:50:12;;;;;;;1.50;1.23;;;6.40;97.20;;;;;;1733973;28;20203;-70
2022/12/30 06:51:03;;;;;;;1.42;1.33;;;6.40;97.20;;;;;;1734028;28;20595;-71
2022/12/30 06:51:55;;;;;;;1.70;1.60;;;6.40;97.20;;;;;;1733753;28;20243;-70
2022/12/30 06:52:45;;;;;;;1.70;1.60;;;6.40;97.20;;;;;;1733408;28;20584;-71
2022/12/30 06:53:37;;;;;;;2.30;2.10;;;6.40;97.20;;;;;;1733860;28;20203;-70
2022/12/30 06:54:28;;;;;;;2.40;2.20;;;6.40;97.20;;;;;;1733976;28;20708;-71
2022/12/30 06:55:21;;;;;;;1.90;1.80;;;6.40;97.20;;;;;;1733749;28;20653;-70
2022/12/30 06:56:12;;;;;;;2.38;2.17;;;6.30;97.20;;;;;;1733902;28;20505;-71
2022/12/30 06:57:04;;;;;;;2.77;2.47;;;6.30;97.20;;;;;;1733557;28;20195;-71
2022/12/30 06:57:54;;;;;;;3.83;3.45;;;6.30;97.20;;;;;;1733847;28;20207;-70
2022/12/30 06:58:46;;;;;;;3.33;3.03;;;6.30;97.20;;;;;;1733961;28;20204;-70
2022/12/30 06:59:37;;;;;;;3.92;3.53;;;6.30;97.20;;;;;;1733479;28;20199;-70
2022/12/30 07:00:29;;;;;;;3.83;3.37;;;6.30;97.20;;;;;;1733929;28;20254;-70
2022/12/30 07:01:20;;;;;;;3.17;2.92;;;6.30;97.20;;;;;;1733828;28;20287;-71
2022/12/30 07:02:14;;;;;;;2.83;2.63;;;6.30;97.20;;;;;;1733337;28;20196;-71
2022/12/30 07:03:04;;;;;;;2.13;1.90;;;6.30;97.20;;;;;;1733897;28;20701;-71
2022/12/30 07:03:56;;;;;;;1.70;1.60;;;6.30;97.20;;;;;;1733746;28;20571;-70
2022/12/30 07:04:47;;;;;;;1.23;1.13;;;6.20;97.20;;;;;;1733919;28;20208;-70
2022/12/30 07:05:37;;;;;;;1.30;1.20;;;6.20;97.20;;;;;;1733781;28;20206;-71
2022/12/30 07:06:29;;;;;;;1.60;1.10;;;6.20;97.20;;;;;;1733977;28;20211;-70
2022/12/30 07:07:20;;;;;;;1.23;1.13;;;6.20;97.20;;;;;;1733645;28;20207;-70
2022/12/30 07:08:12;;;;;;;1.37;1.27;;;6.20;97.20;;;;;;1733863;28;20196;-71
2022/12/30 07:09:02;;;;;;;3.30;1.05;;;6.20;97.20;;;;;;1733523;28;20572;-71
2022/12/30 07:09:54;;;;;;;1.20;1.10;;;6.20;97.20;;;;;;1733926;28;20200;-71
2022/12/30 07:10:45;;;;;;;1.27;1.17;;;6.20;97.20;;;;;;1733531;28;20220;-70
2022/12/30 07:11:37;;;;;;;1.40;1.30;;;6.20;97.20;;;;;;1733866;28;20214;-71
2022/12/30 07:12:27;;;;;;;1.30;1.20;;;6.20;97.20;;;;;;1733298;28;20978;-71
2022/12/30 07:13:19;;;;;;;1.70;1.60;;;6.20;97.20;;;;;;1734113;28;20530;-71
2022/12/30 07:14:10;;;;;;;2.35;1.20;;;6.20;97.20;;;;;;1735092;28;20199;-71
2022/12/30 07:15:02;;;;;;;1.00;0.90;;;6.20;97.20;;;;;;1735204;28;20206;-70
2022/12/30 07:15:52;;;;;;;1.75;1.20;;;6.20;97.20;;;;;;1735098;28;20457;-70
2022/12/30 07:16:44;;;;;;;1.30;1.20;;;6.20;97.20;;;;;;1734813;28;20210;-71
2022/12/30 07:17:36;;;;;;;1.52;1.20;;;6.20;97.20;;;;;;1734948;28;20215;-71
2022/12/30 07:18:28;;;;;;;1.77;1.33;;;6.20;97.20;;;;;;1735205;28;20688;-70
2022/12/30 07:19:19;;;;;;;1.33;1.23;;;6.20;97.20;;;;;;1734776;28;20207;-70
2022/12/30 07:20:12;;;;;;;1.20;1.10;;;6.20;97.20;;;;;;1735106;28;20200;-71
2022/12/30 07:21:03;;;;;;;1.30;1.20;;;6.20;97.20;;;;;;1735161;28;20204;-70
2022/12/30 07:21:56;;;;;;;1.20;1.10;;;6.20;97.20;;;;;;1735098;28;20235;-71
2022/12/30 07:22:46;;;;;;;1.40;1.30;;;6.20;97.20;;;;;;1734541;28;20453;-70
2022/12/30 07:23:38;;;;;;;1.20;1.10;;;6.20;97.20;;;;;;1734939;28;20204;-71
2022/12/30 07:24:29;;;;;;;1.60;1.50;;;6.20;97.20;;;;;;1735066;28;20210;-71
2022/12/30 07:25:20;;;;;;;1.60;1.50;;;6.20;97.20;;;;;;1734981;28;20203;-70
2022/12/30 07:26:11;;;;;;;3.10;2.80;;;6.20;97.20;;;;;;1734970;28;20207;-71
2022/12/30 07:27:03;;;;;;;5.90;4.33;;;6.20;97.20;;;;;;1734764;28;20742;-71
2022/12/30 07:27:57;;;;;;;3.88;2.70;;;6.20;97.20;;;;;;1735035;28;20609;-70
2022/12/30 07:28:51;;;;;;;3.45;2.65;;;6.30;97.20;;;;;;1735022;28;20211;-71
2022/12/30 07:29:42;;;;;;;4.05;3.60;;;6.30;97.20;;;;;;1734887;28;20200;-70
2022/12/30 07:30:34;;;;;;;2.23;2.00;;;6.30;97.20;;;;;;1734854;28;20541;-71
2022/12/30 07:31:24;;;;;;;3.17;2.20;;;6.30;97.20;;;;;;1734997;28;20204;-71
2022/12/30 07:32:16;;;;;;;1.83;1.43;;;6.30;97.20;;;;;;1734350;28;20234;-71
2022/12/30 07:33:09;;;;;;;1.45;1.30;;;6.30;97.20;;;;;;1735218;28;20222;-70
2022/12/30 07:34:01;;;;;;;1.30;1.20;;;6.30;97.20;;;;;;1734959;28;20710;-71
2022/12/30 07:34:51;;;;;;;0.82;0.65;;;6.30;97.20;;;;;;1735071;28;20200;-70
2022/12/30 07:35:43;;;;;;;1.57;0.80;;;6.30;97.20;;;;;;1735086;28;20208;-71
2022/12/30 07:36:34;;;;;;;0.95;0.65;;;6.40;97.20;;;;;;1734963;28;20215;-70
2022/12/30 07:37:25;;;;;;;1.40;0.83;;;6.40;97.20;;;;;;1734732;28;20195;-70
2022/12/30 07:38:16;;;;;;;0.70;0.60;;;6.40;97.20;;;;;;1734603;28;20618;-71
2022/12/30 07:39:08;;;;;;;1.50;0.87;;;6.40;97.20;;;;;;1734885;28;20541;-70
2022/12/30 07:39:59;;;;;;;1.10;0.90;;;6.40;97.20;;;;;;1734841;28;20592;-71
2022/12/30 07:40:50;;;;;;;1.17;0.90;;;6.50;97.20;;;;;;1734733;28;20211;-70
2022/12/30 07:41:41;;;;;;;0.80;0.80;;;6.50;97.20;;;;;;1735352;28;20207;-70
2022/12/30 07:42:33;;;;;;;1.30;0.80;;;6.50;97.20;;;;;;1735282;28;20654;-71
2022/12/30 07:43:24;;;;;;;1.52;1.02;;;6.60;97.20;;;;;;1735417;28;20204;-70
2022/12/30 07:44:15;;;;;;;2.00;0.80;;;6.60;97.20;;;;;;1735678;28;20677;-70
2022/12/30 07:45:07;;;;;;;1.00;0.82;;;6.60;97.20;;;;;;1735815;28;20204;-70
2022/12/30 07:46:05;;;;;;;1.33;0.70;;;6.70;97.20;;;;;;1735486;28;20196;-70
2022/12/30 07:46:56;;;;;;;1.88;0.95;;;6.70;97.20;;;;;;1734896;28;20688;-71
2022/12/30 07:47:48;;;;;;;1.30;1.00;;;6.70;97.20;;;;;;1735019;28;20653;-71
2022/12/30 07:48:40;;;;;;;0.80;0.70;;;6.80;97.20;;;;;;1734717;28;20566;-71
2022/12/30 07:49:31;;;;;;;0.85;0.70;;;6.80;97.20;;;;;;1734954;28;20258;-70
2022/12/30 07:50:22;;;;;;;1.70;0.73;;;6.80;97.20;;;;;;1734910;28;20842;-71
2022/12/30 07:51:15;;;;;;;1.53;1.03;;;6.80;97.20;;;;;;1734887;28;20676;-70
2022/12/30 07:52:06;;;;;;;0.75;0.60;;;6.90;97.20;;;;;;1734816;28;20208;-71
2022/12/30 07:53:00;;;;;;;1.13;0.68;;;6.90;97.20;;;;;;1734872;28;20204;-71
2022/12/30 07:53:51;;;;;;;1.70;0.70;;;6.90;97.20;;;;;;1734912;28;20582;-71
2022/12/30 07:54:42;;;;;;;0.90;0.73;;;7.00;97.20;;;;;;1734820;28;20294;-70
2022/12/30 07:55:33;;;;;;;1.00;0.90;;;7.00;97.20;;;;;;1734822;28;20211;-71
2022/12/30 07:56:25;;;;;;;1.17;1.00;;;7.00;97.20;;;;;;1734816;28;20657;-71
2022/12/30 07:57:15;;;;;;;1.05;0.90;;;7.10;97.20;;;;;;1734549;28;20216;-71
2022/12/30 07:58:07;;;;;;;1.10;0.80;;;7.10;97.20;;;;;;1734959;28;20278;-71
2022/12/30 07:58:58;;;;;;;1.13;0.70;;;7.20;97.20;;;;;;1734498;28;20195;-71
2022/12/30 07:59:51;;;;;;;1.15;0.90;;;7.20;97.20;;;;;;1734797;28;20207;-71
2022/12/30 08:00:41;;;;;;;0.93;0.75;;;7.20;97.20;;;;;;1734857;28;20274;-70
2022/12/30 08:01:33;;;;;;;0.90;0.63;;;7.30;97.20;;;;;;1734821;28;20665;-71
2022/12/30 08:02:24;;;;;;;1.27;0.80;;;7.30;97.20;;;;;;1734376;28;20203;-71
2022/12/30 08:03:15;;;;;;;1.40;0.80;;;7.30;97.20;;;;;;1734936;28;20214;-71
2022/12/30 08:04:08;;;;;;;1.30;0.80;;;7.30;97.20;;;;;;1734753;28;20200;-70
2022/12/30 08:04:59;;;;;;;0.90;0.70;;;7.40;97.20;;;;;;1734830;28;20203;-71
2022/12/30 08:05:50;;;;;;;1.33;0.70;;;7.40;97.20;;;;;;1734818;28;20199;-70
2022/12/30 08:06:42;;;;;;;1.00;0.80;;;7.40;97.20;;;;;;1734680;28;20210;-71
2022/12/30 08:07:33;;;;;;;1.45;0.73;;;7.50;97.20;;;;;;1734735;28;20204;-71
2022/12/30 08:08:27;;;;;;;1.40;0.98;;;7.50;97.20;;;;;;1734605;28;20658;-70
2022/12/30 08:09:18;;;;;;;1.15;0.98;;;7.50;97.20;;;;;;1734634;28;20599;-70
2022/12/30 08:10:10;;;;;;;2.30;2.00;;;7.60;97.20;;;;;;1734804;28;20217;-71
2022/12/30 08:11:02;;;;;;;2.75;2.30;;;7.60;97.20;;;;;;1734589;28;20620;-71
2022/12/30 08:11:53;;;;;;;3.17;2.53;;;7.60;97.20;;;;;;1734680;28;20239;-71
2022/12/30 08:12:45;;;;;;;2.53;2.33;;;7.70;97.20;;;;;;1734159;28;20255;-70
2022/12/30 08:13:38;;;;;;;10.68;5.40;;;7.70;97.20;;;;;;1734481;28;20203;-71
2022/12/30 08:14:30;;;;;;;18.10;7.78;;;7.70;97.20;;;;;;1734857;28;20203;-71
2022/12/30 08:15:21;;;;;;;16.88;8.43;;;7.80;97.20;;;;;;1734860;28;20235;-71
2022/12/30 08:16:14;;;;;;;16.83;7.27;;;7.80;97.20;;;;;;1734758;28;20203;-71
2022/12/30 08:17:05;;;;;;;4.25;2.75;;;7.90;97.20;;;;;;1734535;28;20574;-70
2022/12/30 08:17:57;;;;;;;7.47;3.63;;;7.90;97.20;;;;;;1734701;28;20278;-71
2022/12/30 08:18:47;;;;;;;7.10;4.45;;;7.90;97.20;;;;;;1734481;28;20203;-70
2022/12/30 08:19:40;;;;;;;3.93;3.30;;;8.00;97.20;;;;;;1734608;28;20493;-71
2022/12/30 08:20:31;;;;;;;8.73;5.10;;;8.00;97.20;;;;;;1734622;28;20259;-71
2022/12/30 08:21:23;;;;;;;7.97;5.50;;;8.10;97.20;;;;;;1734721;28;20198;-71
2022/12/30 08:22:14;;;;;;;10.05;5.38;;;8.10;97.20;;;;;;1734123;28;20203;-71
2022/12/30 08:23:05;;;;;;;10.00;6.43;;;8.20;97.20;;;;;;1734814;28;20416;-71
2022/12/30 08:23:56;;;;;;;7.47;4.88;;;8.30;97.20;;;;;;1734508;28;20207;-71
2022/12/30 08:24:48;;;;;;;4.43;3.63;;;8.30;97.20;;;;;;1734310;28;20231;-70
2022/12/30 08:25:39;;;;;;;4.50;3.78;;;8.40;97.20;;;;;;1734156;28;20212;-71
2022/12/30 08:26:31;;;;;;;3.55;2.75;;;8.50;97.20;;;;;;1734629;28;20214;-71
2022/12/30 08:27:21;;;;;;;4.20;3.22;;;8.60;97.20;;;;;;1734395;28;20230;-70
2022/12/30 08:28:13;;;;;;;2.40;2.20;;;8.70;97.20;;;;;;1734739;28;20278;-71
2022/12/30 08:29:04;;;;;;;4.15;2.50;;;8.80;97.20;;;;;;1734499;28;20548;-70
2022/12/30 08:29:55;;;;;;;3.50;2.40;;;8.90;97.20;;;;;;1734618;28;20645;-71
2022/12/30 08:30:46;;;;;;;4.10;3.47;;;8.90;97.20;;;;;;1734232;28;20227;-71
2022/12/30 08:31:38;;;;;;;2.73;2.47;;;9.00;97.20;;;;;;1734494;28;20195;-71
2022/12/30 08:32:29;;;;;;;2.55;2.35;;;9.20;97.20;;;;;;1734109;28;20265;-71
2022/12/30 08:33:21;;;;;;;3.33;3.03;;;9.30;97.20;;;;;;1734528;28;20204;-71
2022/12/30 08:34:11;;;;;;;3.30;2.42;;;9.50;97.20;;;;;;1734529;28;20590;-71
2022/12/30 08:35:07;;;;;;;2.80;2.60;;;9.60;97.20;;;;;;1734594;28;20567;-71
2022/12/30 08:36:00;;;;;;;2.90;2.42;;;9.80;97.20;;;;;;1734534;28;20212;-71
2022/12/30 08:36:52;;;;;;;2.95;2.65;;;10.10;97.20;;;;;;1734352;28;20568;-71
2022/12/30 08:37:43;;;;;;;3.17;2.83;;;10.50;97.20;;;;;;1734630;28;20211;-71
2022/12/30 08:38:35;;;;;;;3.50;3.10;;;11.00;97.20;;;;;;1734290;28;20199;-71
2022/12/30 08:39:26;;;;;;;3.00;2.50;;;11.60;97.20;;;;;;1734661;28;20203;-71
2022/12/30 08:40:18;;;;;;;2.60;2.40;;;12.30;97.20;;;;;;1734421;28;20214;-71
2022/12/30 08:41:11;;;;;;;1.50;1.40;;;12.90;97.20;;;;;;1734716;28;20200;-71
2022/12/30 08:42:02;;;;;;;1.20;1.05;;;13.50;97.20;;;;;;1734573;28;20282;-71
2022/12/30 08:42:53;;;;;;;1.35;1.10;;;14.20;97.20;;;;;;1734059;28;20682;-71
2022/12/30 08:43:46;;;;;;;1.60;1.07;;;14.80;97.20;;;;;;1734389;28;20666;-71
2022/12/30 08:44:36;;;;;;;3.58;1.20;;;15.30;97.20;;;;;;1734492;28;20204;-71
2022/12/30 08:45:28;;;;;;;1.67;0.93;;;15.90;97.20;;;;;;1734658;28;20196;-71
2022/12/30 08:46:19;;;;;;;1.30;1.15;;;16.40;97.20;;;;;;1734449;28;20199;-71
2022/12/30 08:47:10;;;;;;;1.10;0.77;;;17.00;97.20;;;;;;1734418;28;20196;-71
2022/12/30 08:48:01;;;;;;;1.65;1.02;;;17.40;97.20;;;;;;1734393;28;20199;-71
2022/12/30 08:48:53;;;;;;;2.17;1.20;;;17.80;97.20;;;;;;1734109;28;20192;-72
2022/12/30 08:49:45;;;;;;;0.93;0.80;;;18.40;97.20;;;;;;1734476;28;20554;-71
2022/12/30 08:50:37;;;;;;;1.17;1.00;;;19.10;97.20;;;;;;1734504;28;20220;-71
2022/12/30 08:51:29;;;;;;;1.30;0.70;;;19.90;97.20;;;;;;1734514;28;20212;-71
2022/12/30 08:52:20;;;;;;;1.25;0.90;;;20.80;97.20;;;;;;1734021;28;20200;-71
2022/12/30 08:53:12;;;;;;;1.40;1.10;;;21.50;97.20;;;;;;1734472;28;20216;-71
2022/12/30 08:54:03;;;;;;;1.70;1.10;;;22.20;97.20;;;;;;1734422;28;20204;-71
2022/12/30 08:54:54;;;;;;;1.20;1.10;;;22.70;97.20;;;;;;1734454;28;20211;-71
2022/12/30 08:55:45;;;;;;;1.08;0.98;;;23.00;97.20;;;;;;1734474;28;20625;-71
2022/12/30 08:56:39;;;;;;;1.33;0.83;;;23.00;97.20;;;;;;1734461;28;20222;-71
2022/12/30 08:57:30;;;;;;;1.83;1.17;;;22.90;97.20;;;;;;1734512;28;20204;-71
2022/12/30 08:58:22;;;;;;;2.60;2.40;;;22.50;97.20;;;;;;1734427;28;20207;-72
2022/12/30 08:59:12;;;;;;;3.67;2.90;;;22.20;97.20;;;;;;1733984;28;20215;-71
2022/12/30 09:00:05;;;;;;;4.70;3.37;;;21.90;97.20;;;;;;1734377;28;20206;-71
2022/12/30 09:00:56;;;;;;;3.10;2.33;;;21.80;97.20;;;;;;1734333;28;20231;-71
2022/12/30 09:01:48;;;;;;;2.58;2.08;;;21.50;97.20;;;;;;1734503;28;20234;-71
2022/12/30 09:02:38;;;;;;;4.30;2.05;;;21.20;97.20;;;;;;1733740;28;20223;-72
2022/12/30 09:03:30;;;;;;;2.40;2.30;;;20.90;97.20;;;;;;1734358;28;20204;-71
2022/12/30 09:04:22;;;;;;;2.47;2.28;;;20.60;97.20;;;;;;1734412;28;20196;-71
2022/12/30 09:05:12;;;;;;;2.58;2.05;;;20.40;97.20;;;;;;1734251;28;20199;-70
2022/12/30 09:06:06;;;;;;;1.70;1.60;;;20.30;97.20;;;;;;1734398;28;20292;-71
2022/12/30 09:06:57;;;;;;;3.03;2.25;;;20.20;97.20;;;;;;1734121;28;20733;-72
2022/12/30 09:07:49;;;;;;;4.60;4.20;;;20.20;97.20;;;;;;1734447;28;20564;-71
2022/12/30 09:08:41;;;;;;;4.40;3.97;;;20.40;97.20;;;;;;1734090;28;20578;-71
2022/12/30 09:09:33;;;;;;;2.63;2.42;;;20.70;97.20;;;;;;1734323;28;20207;-71
2022/12/30 09:10:23;;;;;;;2.00;1.50;;;21.10;97.20;;;;;;1734327;28;20708;-71
2022/12/30 09:11:18;;;;;;;1.30;0.93;;;21.80;97.20;;;;;;1733986;28;20844;-71
2022/12/30 09:12:08;;;;;;;2.00;1.80;;;22.50;97.20;;;;;;1733831;28;20207;-71
2022/12/30 09:13:02;;;;;;;2.20;1.97;;;23.30;97.20;;;;;;1734187;28;20307;-71
2022/12/30 09:13:53;;;;;;;1.77;1.67;;;24.00;97.20;;;;;;1734252;28;20204;-71
2022/12/30 09:14:45;;;;;;;2.20;1.83;;;24.70;97.20;;;;;;1734356;28;20253;-71
2022/12/30 09:15:35;;;;;;;5.15;4.85;;;25.40;97.20;;;;;;1734308;28;20204;-71
2022/12/30 09:16:28;;;;;;;2.67;2.47;;;26.10;97.20;;;;;;1734440;28;20209;-71
2022/12/30 09:17:19;;;;;;;2.67;2.42;;;26.70;97.20;;;;;;1734064;28;20203;-71
2022/12/30 09:18:10;;;;;;;2.13;1.97;;;27.30;97.20;;;;;;1734385;28;20683;-71
2022/12/30 09:19:02;;;;;;;1.88;1.67;;;27.70;95.80;;;;;;1734139;28;20192;-72
2022/12/30 09:19:53;;;;;;;1.98;1.88;;;28.10;94.60;;;;;;1734451;28;20607;-72
2022/12/30 09:20:44;;;;;;;2.65;2.45;;;28.40;93.80;;;;;;1734212;28;20228;-72
2022/12/30 09:21:37;;;;;;;1.40;1.30;;;28.60;92.70;;;;;;1734320;28;20282;-71
2022/12/30 09:22:28;;;;;;;6.30;5.70;;;28.70;91.90;;;;;;1733756;28;20203;-71
2022/12/30 09:23:19;;;;;;;8.67;7.97;;;28.70;91.30;;;;;;1734181;28;20204;-71
2022/12/30 09:24:10;;;;;;;5.25;4.85;;;28.80;90.90;;;;;;1734213;28;20203;-71
2022/12/30 09:25:02;;;;;;;2.43;1.43;;;29.10;90.30;;;;;;1734337;28;20206;-71
2022/12/30 09:25:53;;;;;;;1.15;1.02;;;29.30;89.60;;;;;;1734361;28;20204;-72
2022/12/30 09:26:44;;;;;;;1.47;0.70;;;29.30;88.70;;;;;;1734023;28;20199;-72
2022/12/30 09:27:35;;;;;;;0.80;0.60;;;29.10;88.30;;;;;;1734280;28;20592;-71
2022/12/30 09:28:27;;;;;;;0.80;0.50;;;28.90;88.50;;;;;;1734278;28;20192;-72
2022/12/30 09:29:18;;;;;;;1.10;0.98;;;28.70;88.80;;;;;;1734002;28;20220;-71
2022/12/30 09:30:10;;;;;;;3.67;1.80;;;28.50;89.00;;;;;;1734383;28;20206;-71
2022/12/30 09:31:01;;;;;;;2.17;1.90;;;28.40;89.30;;;;;;1734140;28;20457;-72
2022/12/30 09:31:53;;;;;;;2.70;1.47;;;28.20;89.50;;;;;;1734361;28;20213;-71
2022/12/30 09:32:43;;;;;;;2.65;1.70;;;28.10;89.40;;;;;;1733669;28;20227;-71
2022/12/30 09:33:35;;;;;;;2.17;1.00;;;27.90;89.90;;;;;;1733023;28;20209;-72
2022/12/30 09:34:26;;;;;;;1.70;1.20;;;27.80;89.70;;;;;;1734276;28;20204;-72
2022/12/30 09:35:17;;;;;;;1.30;1.13;;;27.60;90.10;;;;;;1734233;28;20211;-72
2022/12/30 09:36:09;;;;;;;1.27;0.80;;;27.60;90.20;;;;;;1734093;28;20196;-72
2022/12/30 09:37:02;;;;;;;1.00;0.70;;;27.80;90.20;;;;;;1734000;28;20206;-72
2022/12/30 09:37:53;;;;;;;1.15;0.70;;;28.00;89.20;;;;;;1734162;28;20218;-71
2022/12/30 09:38:45;;;;;;;1.67;0.90;;;28.20;88.90;;;;;;1733918;28;20210;-72
2022/12/30 09:39:36;;;;;;;1.30;0.80;;;28.50;88.40;;;;;;1734186;28;20963;-72
2022/12/30 09:40:43;;;;;;;1.00;0.70;;;28.70;87.50;;;;;;1734286;28;20654;-72
2022/12/30 09:44:08;;;;;;;0.85;0.63;;;29.60;86.10;;;;;;1734132;28;20202;-71
2022/12/30 09:45:13;;;;;;;1.90;0.70;;;29.80;85.20;;;;;;1734196;28;20190;-72
2022/12/30 09:46:34;;;;;;;1.77;0.77;;;29.90;84.80;;;;;;1734194;28;20212;-72
2022/12/30 09:47:29;;;;;;;1.00;0.73;;;30.40;84.00;;;;;;1734148;28;20643;-71
2022/12/30 09:48:24;;;;;;;1.20;0.73;;;30.50;84.00;;;;;;1734159;28;20204;-72
2022/12/30 09:49:22;;;;;;;1.63;0.68;;;30.80;83.80;;;;;;1733859;28;20196;-71
2022/12/30 09:50:23;;;;;;;1.10;0.68;;;31.10;82.80;;;;;;1734069;28;20196;-71
2022/12/30 09:51:18;;;;;;;1.60;0.70;;;31.30;82.30;;;;;;1734118;28;20184;-71
2022/12/30 09:52:18;;;;;;;0.80;0.65;;;31.50;81.60;;;;;;1733725;28;20191;-71
2022/12/30 09:53:14;;;;;;;1.33;0.75;;;31.70;81.20;;;;;;1733755;28;20200;-73
2022/12/30 09:54:12;;;;;;;1.00;0.60;;;31.70;80.30;;;;;;1734079;28;20661;-72
2022/12/30 09:55:14;;;;;;;1.65;0.80;;;31.80;80.30;;;;;;1734186;28;20211;-72
2022/12/30 09:56:12;;;;;;;1.00;0.75;;;31.90;80.30;;;;;;1734176;28;20204;-71
2022/12/30 09:58:17;;;;;;;1.77;0.90;;;32.00;79.60;;;;;;1733139;28;20199;-72
2022/12/30 09:59:20;;;;;;;1.02;0.82;;;32.00;79.70;;;;;;1733911;28;20200;-71
2022/12/30 10:00:16;;;;;;;2.55;0.80;;;32.20;79.70;;;;;;1734214;28;20207;-72
2022/12/30 10:01:20;;;;;;;1.60;0.80;;;32.40;79.50;;;;;;1733885;28;20196;-72
2022/12/30 10:02:20;;;;;;;1.50;0.82;;;32.50;78.90;;;;;;1733539;28;20200;-72
2022/12/30 10:03:16;;;;;;;1.30;0.90;;;32.30;78.80;;;;;;1734109;28;20200;-71
2022/12/30 10:04:12;;;;;;;1.60;1.40;;;32.20;78.80;;;;;;1734085;28;20188;-71
2022/12/30 10:05:09;;;;;;;1.23;1.00;;;32.00;78.80;;;;;;1734099;28;20200;-71
2022/12/30 10:06:09;;;;;;;1.38;1.10;;;31.90;79.20;;;;;;1734080;28;20225;-72
2022/12/30 10:07:07;;;;;;;1.42;0.90;;;31.80;79.30;;;;;;1733891;28;20629;-72
2022/12/30 10:08:05;;;;;;;1.27;0.90;;;31.60;79.40;;;;;;1734150;28;20195;-72
2022/12/30 10:09:23;;;;;;;1.02;0.63;;;31.50;79.80;;;;;;1733429;28;20204;-72
2022/12/30 10:10:19;;;;;;;1.05;0.80;;;31.40;79.80;;;;;;1733764;28;20192;-72
2022/12/30 10:11:14;;;;;;;1.52;1.10;;;31.40;79.30;;;;;;1733831;28;20199;-71
2022/12/30 10:12:29;;;;;;;2.33;1.20;;;31.40;79.50;;;;;;1734046;28;20196;-71
2022/12/30 10:13:27;;;;;;;1.33;1.10;;;31.50;79.10;;;;;;1733973;28;20218;-72
2022/12/30 10:14:27;;;;;;;1.38;1.10;;;31.50;79.10;;;;;;1734001;28;20208;-72
2022/12/30 10:15:27;;;;;;;1.83;1.10;;;31.30;79.10;;;;;;1734005;28;20204;-72
2022/12/30 10:16:31;;;;;;;1.75;1.00;;;31.40;79.10;;;;;;1734075;28;20764;-71
2022/12/30 10:17:36;;;;;;;1.35;0.80;;;31.50;79.20;;;;;;1733704;28;20207;-71
2022/12/30 10:18:48;;;;;;;1.00;0.88;;;31.80;79.10;;;;;;1727211;28;20205;-71
2022/12/30 10:19:49;;;;;;;1.25;0.85;;;32.10;78.20;;;;;;1727089;28;20193;-72
2022/12/30 10:20:50;;;;;;;1.38;1.20;;;32.00;77.90;;;;;;1727128;28;20232;-72
2022/12/30 10:21:50;;;;;;;1.30;0.90;;;31.80;78.00;;;;;;1727206;28;20255;-72
2022/12/30 10:22:49;;;;;;;1.10;1.00;;;31.70;78.30;;;;;;1726646;28;20232;-72
2022/12/30 10:23:54;;;;;;;1.80;1.00;;;31.50;78.30;;;;;;1727003;28;20197;-72
2022/12/30 10:25:04;;;;;;;1.48;0.85;;;31.50;78.60;;;;;;1727236;28;20705;-72
2022/12/30 10:26:03;;;;;;;2.20;1.08;;;31.60;78.90;;;;;;1727169;28;20576;-71
2022/12/30 10:26:57;;;;;;;2.30;1.20;;;32.00;78.80;;;;;;1726959;28;20291;-71
2022/12/30 10:27:51;;;;;;;1.05;0.95;;;32.20;78.40;;;;;;1730390;28;20196;-71
2022/12/30 10:28:46;;;;;;;1.30;1.20;;;32.60;78.10;;;;;;1733960;28;20215;-71
2022/12/30 10:29:39;;;;;;;1.10;0.82;;;32.90;77.10;;;;;;1733947;28;20539;-71
2022/12/30 10:30:37;;;;;;;1.40;1.20;;;33.10;76.70;;;;;;1733737;28;20229;-71
2022/12/30 10:31:32;;;;;;;1.30;0.98;;;33.50;76.20;;;;;;1733212;28;20635;-71
2022/12/30 10:32:29;;;;;;;1.25;1.05;;;33.80;75.50;;;;;;1731530;28;20191;-71
2022/12/30 10:33:22;;;;;;;1.45;1.10;;;34.30;75.60;;;;;;1731344;28;20192;-71
2022/12/30 10:34:15;;;;;;;1.30;1.10;;;34.90;75.10;;;;;;1729121;28;20709;-71
2022/12/30 10:35:17;;;;;;;1.52;1.00;;;35.30;73.90;;;;;;1731734;28;20271;-71
2022/12/30 10:36:13;;;;;;;1.10;0.98;;;35.40;73.30;;;;;;1731191;28;20188;-70
2022/12/30 10:37:11;;;;;;;0.90;0.80;;;35.50;72.90;;;;;;1731957;28;20207;-71
2022/12/30 10:38:10;;;;;;;1.20;1.10;;;35.50;73.20;;;;;;1734037;28;20584;-71
2022/12/30 10:39:11;;;;;;;1.10;0.90;;;35.60;72.70;;;;;;1734006;28;20192;-71
2022/12/30 10:40:09;;;;;;;1.50;1.40;;;35.60;72.90;;;;;;1734039;28;20219;-71
2022/12/30 10:41:08;;;;;;;1.40;1.15;;;35.50;72.50;;;;;;1733889;28;20224;-71
2022/12/30 10:42:16;;;;;;;1.40;1.10;;;35.50;72.90;;;;;;1733856;28;20313;-71